sensor_id;sensor_type;location;lat;lon;timestamp;pressure;altitude;pressure_sealevel;temperature;humidity
65897;BME280;52677;50.898;10.854;2023-03-03T00:00:49;99040.53;;;-0.70;100.00
65897;BME280;52677;50.898;10.854;2023-03-03T00:02:50;99043.25;;;-0.70;100.00
65897;BME280;52677;50.898;10.854;2023-03-03T00:04:50;99036.50;;;-0.73;100.00
65897;BME280;52677;50.898;10.854;2023-03-03T00:06:51;99035.94;;;-0.75;100.00
65897;BME280;52677;50.898;10.854;2023-03-03T00:08:52;99042.22;;;-0.74;100.00
65897;BME280;52677;50.898;10.854;2023-03-03T00:10:52;99034.59;;;-0.72;100.00
65897;BME280;52677;50.898;10.854;2023-03-03T00:12:54;99035.69;;;-0.73;100.00
65897;BME280;52677;50.898;10.854;2023-03-03T00:14:55;99028.63;;;-0.74;100.00
65897;BME280;52677;50.898;10.854;2023-03-03T00:16:56;99033.22;;;-0.75;100.00
65897;BME280;52677;50.898;10.854;2023-03-03T00:18:57;99029.72;;;-0.75;100.00
65897;BME280;52677;50.898;10.854;2023-03-03T00:21:01;99030.81;;;-0.76;100.00
65897;BME280;52677;50.898;10.854;2023-03-03T00:23:06;99035.72;;;-0.78;100.00
65897;BME280;52677;50.898;10.854;2023-03-03T00:25:29;99036.53;;;-0.78;100.00
65897;BME280;52677;50.898;10.854;2023-03-03T00:27:34;99034.63;;;-0.77;100.00
65897;BME280;52677;50.898;10.854;2023-03-03T00:29:39;99029.78;;;-0.80;100.00
65897;BME280;52677;50.898;10.854;2023-03-03T00:31:40;99030.59;;;-0.80;100.00
65897;BME280;52677;50.898;10.854;2023-03-03T00:33:51;99024.88;;;-0.78;100.00
65897;BME280;52677;50.898;10.854;2023-03-03T00:35:55;99033.81;;;-0.78;100.00
65897;BME280;52677;50.898;10.854;2023-03-03T00:38:01;99029.19;;;-0.77;100.00
65897;BME280;52677;50.898;10.854;2023-03-03T00:40:24;99038.97;;;-0.76;100.00
65897;BME280;52677;50.898;10.854;2023-03-03T00:42:26;99036.53;;;-0.78;100.00
65897;BME280;52677;50.898;10.854;2023-03-03T00:44:52;99047.72;;;-0.79;100.00
65897;BME280;52677;50.898;10.854;2023-03-03T00:46:55;99042.28;;;-0.79;100.00
65897;BME280;52677;50.898;10.854;2023-03-03T00:48:55;99039.31;;;-0.83;100.00
65897;BME280;52677;50.898;10.854;2023-03-03T00:50:58;99043.41;;;-0.86;100.00
65897;BME280;52677;50.898;10.854;2023-03-03T00:53:05;99048.56;;;-0.84;100.00
65897;BME280;52677;50.898;10.854;2023-03-03T00:55:06;99040.69;;;-0.86;100.00
65897;BME280;52677;50.898;10.854;2023-03-03T00:57:07;99038.78;;;-0.85;100.00
65897;BME280;52677;50.898;10.854;2023-03-03T00:59:08;99043.13;;;-0.84;100.00
65897;BME280;52677;50.898;10.854;2023-03-03T01:01:08;99044.75;;;-0.83;100.00
65897;BME280;52677;50.898;10.854;2023-03-03T01:03:13;99042.03;;;-0.83;100.00
65897;BME280;52677;50.898;10.854;2023-03-03T01:05:15;99039.91;;;-0.86;100.00
65897;BME280;52677;50.898;10.854;2023-03-03T01:07:16;99045.31;;;-0.86;100.00
65897;BME280;52677;50.898;10.854;2023-03-03T01:09:16;99044.53;;;-0.87;100.00
65897;BME280;52677;50.898;10.854;2023-03-03T01:11:20;99042.09;;;-0.88;100.00
65897;BME280;52677;50.898;10.854;2023-03-03T01:13:26;99046.44;;;-0.87;100.00
65897;BME280;52677;50.898;10.854;2023-03-03T01:15:27;99048.56;;;-0.84;100.00
65897;BME280;52677;50.898;10.854;2023-03-03T01:17:28;99034.47;;;-0.86;100.00
65897;BME280;52677;50.898;10.854;2023-03-03T01:19:28;99029.31;;;-0.88;100.00
65897;BME280;52677;50.898;10.854;2023-03-03T01:21:28;99034.75;;;-0.88;100.00
65897;BME280;52677;50.898;10.854;2023-03-03T01:23:29;99036.66;;;-0.88;100.00
65897;BME280;52677;50.898;10.854;2023-03-03T01:25:29;99033.94;;;-0.88;100.00
65897;BME280;52677;50.898;10.854;2023-03-03T01:27:30;99029.91;;;-0.91;100.00
65897;BME280;52677;50.898;10.854;2023-03-03T01:29:32;99033.16;;;-0.89;100.00
65897;BME280;52677;50.898;10.854;2023-03-03T01:31:32;99045.31;;;-0.86;100.00
65897;BME280;52677;50.898;10.854;2023-03-03T01:33:34;99040.19;;;-0.88;100.00
65897;BME280;52677;50.898;10.854;2023-03-03T01:35:35;99038.00;;;-0.86;100.00
65897;BME280;52677;50.898;10.854;2023-03-03T01:37:35;99033.66;;;-0.87;100.00
65897;BME280;52677;50.898;10.854;2023-03-03T01:39:36;99034.75;;;-0.88;100.00
65897;BME280;52677;50.898;10.854;2023-03-03T01:41:36;99041.00;;;-0.87;100.00
65897;BME280;52677;50.898;10.854;2023-03-03T01:43:42;99038.78;;;-0.85;100.00
65897;BME280;52677;50.898;10.854;2023-03-03T01:48:35;99049.09;;;-0.82;100.00
65897;BME280;52677;50.898;10.854;2023-03-03T01:50:48;99038.00;;;-0.86;100.00
65897;BME280;52677;50.898;10.854;2023-03-03T01:52:50;99035.78;;;-0.83;100.00
65897;BME280;52677;50.898;10.854;2023-03-03T01:54:56;99048.56;;;-0.84;100.00
65897;BME280;52677;50.898;10.854;2023-03-03T01:57:00;99042.09;;;-0.88;100.00
65897;BME280;52677;50.898;10.854;2023-03-03T01:59:10;99051.34;;;-0.89;100.00
65897;BME280;52677;50.898;10.854;2023-03-03T02:01:16;99047.03;;;-0.90;100.00
65897;BME280;52677;50.898;10.854;2023-03-03T02:03:20;99058.97;;;-0.91;100.00
65897;BME280;52677;50.898;10.854;2023-03-03T02:05:21;99047.28;;;-0.92;100.00
65897;BME280;52677;50.898;10.854;2023-03-03T02:07:24;99050.59;;;-0.95;100.00
65897;BME280;52677;50.898;10.854;2023-03-03T02:09:44;99043.31;;;-0.99;100.00
65897;BME280;52677;50.898;10.854;2023-03-03T02:11:46;99051.97;;;-0.97;100.00
65897;BME280;52677;50.898;10.854;2023-03-03T02:13:49;99050.06;;;-0.97;100.00
65897;BME280;52677;50.898;10.854;2023-03-03T02:15:49;99042.22;;;-0.98;100.00
65897;BME280;52677;50.898;10.854;2023-03-03T02:17:53;99045.75;;;-0.98;100.00
65897;BME280;52677;50.898;10.854;2023-03-03T02:22:02;99038.75;;;-1.04;100.00
65897;BME280;52677;50.898;10.854;2023-03-03T02:26:13;99048.00;;;-1.05;100.00
65897;BME280;52677;50.898;10.854;2023-03-03T02:28:14;99039.31;;;-1.07;100.00
65897;BME280;52677;50.898;10.854;2023-03-03T02:30:19;99041.50;;;-1.09;100.00
65897;BME280;52677;50.898;10.854;2023-03-03T02:32:20;99029.03;;;-1.10;100.00
65897;BME280;52677;50.898;10.854;2023-03-03T02:34:20;99020.59;;;-1.08;100.00
65897;BME280;52677;50.898;10.854;2023-03-03T02:36:24;99030.94;;;-1.10;100.00
65897;BME280;52677;50.898;10.854;2023-03-03T02:38:31;99033.34;;;-1.09;100.00
65897;BME280;52677;50.898;10.854;2023-03-03T02:40:39;99031.44;;;-1.08;100.00
65897;BME280;52677;50.898;10.854;2023-03-03T02:42:42;99033.34;;;-1.09;100.00
65897;BME280;52677;50.898;10.854;2023-03-03T02:44:45;99028.72;;;-1.08;100.00
65897;BME280;52677;50.898;10.854;2023-03-03T02:46:47;99036.31;;;-1.05;100.00
65897;BME280;52677;50.898;10.854;2023-03-03T02:48:47;99027.13;;;-1.09;100.00
65897;BME280;52677;50.898;10.854;2023-03-03T02:50:48;99026.59;;;-1.11;100.00
65897;BME280;52677;50.898;10.854;2023-03-03T02:52:48;99029.03;;;-1.10;100.00
65897;BME280;52677;50.898;10.854;2023-03-03T02:54:48;99022.28;;;-1.13;100.00
65897;BME280;52677;50.898;10.854;2023-03-03T02:56:49;99012.00;;;-1.16;100.00
65897;BME280;52677;50.898;10.854;2023-03-03T02:58:49;99011.16;;;-1.16;100.00
65897;BME280;52677;50.898;10.854;2023-03-03T03:00:50;99006.03;;;-1.18;100.00
65897;BME280;52677;50.898;10.854;2023-03-03T03:02:50;99021.50;;;-1.18;100.00
65897;BME280;52677;50.898;10.854;2023-03-03T03:04:50;99022.59;;;-1.19;100.00
65897;BME280;52677;50.898;10.854;2023-03-03T03:06:51;99022.31;;;-1.18;100.00
65897;BME280;52677;50.898;10.854;2023-03-03T03:08:52;99033.16;;;-1.18;100.00
65897;BME280;52677;50.898;10.854;2023-03-03T03:10:53;99028.31;;;-1.21;100.00
65897;BME280;52677;50.898;10.854;2023-03-03T03:12:53;99027.28;;;-1.25;100.00
65897;BME280;52677;50.898;10.854;2023-03-03T03:14:54;99029.97;;;-1.25;100.00
65897;BME280;52677;50.898;10.854;2023-03-03T03:16:54;99026.75;;;-1.27;100.00
65897;BME280;52677;50.898;10.854;2023-03-03T03:18:54;99026.25;;;-1.29;100.00
65897;BME280;52677;50.898;10.854;2023-03-03T03:20:55;99032.47;;;-1.28;100.00
65897;BME280;52677;50.898;10.854;2023-03-03T03:22:55;99026.75;;;-1.27;100.00
65897;BME280;52677;50.898;10.854;2023-03-03T03:24:55;99034.09;;;-1.27;100.00
65897;BME280;52677;50.898;10.854;2023-03-03T03:26:56;99039.59;;;-1.32;100.00
65897;BME280;52677;50.898;10.854;2023-03-03T03:28:56;99033.31;;;-1.33;100.00
65897;BME280;52677;50.898;10.854;2023-03-03T03:30:57;99039.03;;;-1.34;100.00
65897;BME280;52677;50.898;10.854;2023-03-03T03:32:58;99037.13;;;-1.34;100.00
65897;BME280;52677;50.898;10.854;2023-03-03T03:34:58;99035.28;;;-1.38;100.00
65897;BME280;52677;50.898;10.854;2023-03-03T03:36:58;99034.50;;;-1.39;100.00
65897;BME280;52677;50.898;10.854;2023-03-03T03:38:58;99038.00;;;-1.38;100.00
65897;BME280;52677;50.898;10.854;2023-03-03T03:41:03;99043.16;;;-1.37;100.00
65897;BME280;52677;50.898;10.854;2023-03-03T03:43:03;99047.78;;;-1.37;100.00
65897;BME280;52677;50.898;10.854;2023-03-03T03:45:04;99046.44;;;-1.40;100.00
65897;BME280;52677;50.898;10.854;2023-03-03T03:47:05;99041.84;;;-1.45;100.00
65897;BME280;52677;50.898;10.854;2023-03-03T03:49:05;99033.72;;;-1.45;100.00
65897;BME280;52677;50.898;10.854;2023-03-03T03:51:05;99039.16;;;-1.45;100.00
65897;BME280;52677;50.898;10.854;2023-03-03T03:53:06;99035.09;;;-1.47;100.00
65897;BME280;52677;50.898;10.854;2023-03-03T03:55:07;99029.41;;;-1.51;100.00
65897;BME280;52677;50.898;10.854;2023-03-03T03:57:08;99033.25;;;-1.52;100.00
65897;BME280;52677;50.898;10.854;2023-03-03T03:59:08;99043.81;;;-1.50;100.00
65897;BME280;52677;50.898;10.854;2023-03-03T04:01:08;99045.41;;;-1.49;100.00
65897;BME280;52677;50.898;10.854;2023-03-03T04:03:09;99038.94;;;-1.53;100.00
65897;BME280;52677;50.898;10.854;2023-03-03T04:05:09;99033.25;;;-1.52;100.00
65897;BME280;52677;50.898;10.854;2023-03-03T04:07:10;99038.66;;;-1.52;100.00
65897;BME280;52677;50.898;10.854;2023-03-03T04:09:10;99031.41;;;-1.56;100.00
65897;BME280;52677;50.898;10.854;2023-03-03T04:11:10;99033.53;;;-1.53;100.00
65897;BME280;52677;50.898;10.854;2023-03-03T04:13:11;99032.19;;;-1.56;100.00
65897;BME280;52677;50.898;10.854;2023-03-03T04:15:12;99030.59;;;-1.57;100.00
65897;BME280;52677;50.898;10.854;2023-03-03T04:17:17;99032.47;;;-1.57;100.00
65897;BME280;52677;50.898;10.854;2023-03-03T04:19:18;99038.19;;;-1.59;100.00
65897;BME280;52677;50.898;10.854;2023-03-03T04:21:18;99038.47;;;-1.60;100.00
65897;BME280;52677;50.898;10.854;2023-03-03T04:23:20;99029.00;;;-1.63;100.00
65897;BME280;52677;50.898;10.854;2023-03-03T04:25:20;99041.19;;;-1.60;100.00
65897;BME280;52677;50.898;10.854;2023-03-03T04:27:21;99032.22;;;-1.61;100.00
65897;BME280;52677;50.898;10.854;2023-03-03T04:29:21;99038.47;;;-1.60;100.00
65897;BME280;52677;50.898;10.854;2023-03-03T04:31:21;99051.75;;;-1.59;100.00
65897;BME280;52677;50.898;10.854;2023-03-03T04:33:22;99046.59;;;-1.60;100.00
65897;BME280;52677;50.898;10.854;2023-03-03T04:35:23;99050.72;;;-1.63;100.00
65897;BME280;52677;50.898;10.854;2023-03-03T04:37:23;99051.81;;;-1.64;100.00
65897;BME280;52677;50.898;10.854;2023-03-03T04:39:24;99054.81;;;-1.65;100.00
65897;BME280;52677;50.898;10.854;2023-03-03T04:41:24;99057.25;;;-1.69;100.00
65897;BME280;52677;50.898;10.854;2023-03-03T04:43:25;99052.94;;;-1.70;100.00
65897;BME280;52677;50.898;10.854;2023-03-03T04:45:25;99049.94;;;-1.68;100.00
65897;BME280;52677;50.898;10.854;2023-03-03T04:47:25;99060.84;;;-1.74;100.00
65897;BME280;52677;50.898;10.854;2023-03-03T04:49:25;99060.59;;;-1.77;100.00
65897;BME280;52677;50.898;10.854;2023-03-03T04:51:26;99061.88;;;-1.70;100.00
65897;BME280;52677;50.898;10.854;2023-03-03T04:53:26;99067.59;;;-1.71;100.00
65897;BME280;52677;50.898;10.854;2023-03-03T04:55:27;99059.75;;;-1.73;100.00
65897;BME280;52677;50.898;10.854;2023-03-03T04:57:27;99066.28;;;-1.74;100.00
65897;BME280;52677;50.898;10.854;2023-03-03T04:59:27;99065.44;;;-1.74;100.00
65897;BME280;52677;50.898;10.854;2023-03-03T05:01:28;99055.41;;;-1.74;100.00
65897;BME280;52677;50.898;10.854;2023-03-03T05:03:28;99052.72;;;-1.74;100.00
65897;BME280;52677;50.898;10.854;2023-03-03T05:05:28;99063.56;;;-1.74;100.00
65897;BME280;52677;50.898;10.854;2023-03-03T05:07:29;99070.63;;;-1.78;100.00
65897;BME280;52677;50.898;10.854;2023-03-03T05:09:29;99057.06;;;-1.78;100.00
65897;BME280;52677;50.898;10.854;2023-03-03T05:11:29;99066.28;;;-1.74;100.00
65897;BME280;52677;50.898;10.854;2023-03-03T05:13:31;99082.25;;;-1.72;100.00
65897;BME280;52677;50.898;10.854;2023-03-03T05:15:32;99087.13;;;-1.74;100.00
65897;BME280;52677;50.898;10.854;2023-03-03T05:17:32;99078.75;;;-1.73;100.00
65897;BME280;52677;50.898;10.854;2023-03-03T05:19:32;99085.25;;;-1.74;100.00
65897;BME280;52677;50.898;10.854;2023-03-03T05:21:34;99086.09;;;-1.78;100.00
65897;BME280;52677;50.898;10.854;2023-03-03T05:23:34;99081.75;;;-1.79;100.00
65897;BME280;52677;50.898;10.854;2023-03-03T05:25:34;99084.47;;;-1.79;100.00
65897;BME280;52677;50.898;10.854;2023-03-03T05:27:35;99086.66;;;-1.81;100.00
65897;BME280;52677;50.898;10.854;2023-03-03T05:29:35;99085.28;;;-1.79;100.00
65897;BME280;52677;50.898;10.854;2023-03-03T05:31:35;99093.72;;;-1.80;100.00
65897;BME280;52677;50.898;10.854;2023-03-03T05:33:36;99091.81;;;-1.85;100.00
65897;BME280;52677;50.898;10.854;2023-03-03T05:35:36;99097.56;;;-1.91;100.00
65897;BME280;52677;50.898;10.854;2023-03-03T05:37:36;99093.22;;;-1.92;100.00
65897;BME280;52677;50.898;10.854;2023-03-03T05:39:39;99096.75;;;-1.92;100.00
65897;BME280;52677;50.898;10.854;2023-03-03T05:41:39;99095.44;;;-1.94;100.00
65897;BME280;52677;50.898;10.854;2023-03-03T05:43:39;99098.66;;;-1.92;100.00
65897;BME280;52677;50.898;10.854;2023-03-03T05:45:40;99098.94;;;-1.94;100.00
65897;BME280;52677;50.898;10.854;2023-03-03T05:47:40;99106.50;;;-1.86;100.00
65897;BME280;52677;50.898;10.854;2023-03-03T05:49:40;99104.59;;;-1.90;100.00
65897;BME280;52677;50.898;10.854;2023-03-03T05:51:41;99116.28;;;-1.90;100.00
65897;BME280;52677;50.898;10.854;2023-03-03T05:53:41;99118.16;;;-1.90;100.00
65897;BME280;52677;50.898;10.854;2023-03-03T05:55:41;99108.19;;;-1.95;100.00
65897;BME280;52677;50.898;10.854;2023-03-03T05:57:42;99112.78;;;-1.95;100.00
65897;BME280;52677;50.898;10.854;2023-03-03T05:59:42;99119.84;;;-2.00;100.00
65897;BME280;52677;50.898;10.854;2023-03-03T06:01:43;99119.31;;;-2.02;100.00
65897;BME280;52677;50.898;10.854;2023-03-03T06:03:43;99118.50;;;-2.02;100.00
65897;BME280;52677;50.898;10.854;2023-03-03T06:05:44;99116.09;;;-2.04;100.00
65897;BME280;52677;50.898;10.854;2023-03-03T06:07:44;99118.53;;;-2.07;100.00
65897;BME280;52677;50.898;10.854;2023-03-03T06:09:44;99124.78;;;-2.07;100.00
65897;BME280;52677;50.898;10.854;2023-03-03T06:11:45;99125.31;;;-2.05;100.00
65897;BME280;52677;50.898;10.854;2023-03-03T06:13:45;99110.41;;;-2.07;100.00
65897;BME280;52677;50.898;10.854;2023-03-03T06:15:45;99116.41;;;-2.10;100.00
65897;BME280;52677;50.898;10.854;2023-03-03T06:17:46;99138.91;;;-2.10;100.00
65897;BME280;52677;50.898;10.854;2023-03-03T06:19:46;99138.91;;;-2.10;100.00
65897;BME280;52677;50.898;10.854;2023-03-03T06:21:47;99140.78;;;-2.10;100.00
65897;BME280;52677;50.898;10.854;2023-03-03T06:23:47;99147.84;;;-2.09;100.00
65897;BME280;52677;50.898;10.854;2023-03-03T06:25:48;99140.28;;;-2.17;100.00
65897;BME280;52677;50.898;10.854;2023-03-03T06:27:48;99134.56;;;-2.16;100.00
65897;BME280;52677;50.898;10.854;2023-03-03T06:29:48;99146.78;;;-2.13;100.00
65897;BME280;52677;50.898;10.854;2023-03-03T06:31:49;99146.50;;;-2.12;100.00
65897;BME280;52677;50.898;10.854;2023-03-03T06:33:49;99145.41;;;-2.11;100.00
65897;BME280;52677;50.898;10.854;2023-03-03T06:35:52;99139.97;;;-2.11;100.00
65897;BME280;52677;50.898;10.854;2023-03-03T06:37:52;99150.03;;;-2.11;100.00
65897;BME280;52677;50.898;10.854;2023-03-03T06:39:53;99150.84;;;-2.11;100.00
65897;BME280;52677;50.898;10.854;2023-03-03T06:41:53;99151.94;;;-2.12;100.00
65897;BME280;52677;50.898;10.854;2023-03-03T06:43:53;99159.53;;;-2.14;100.00
65897;BME280;52677;50.898;10.854;2023-03-03T06:45:54;99146.78;;;-2.13;100.00
65897;BME280;52677;50.898;10.854;2023-03-03T06:47:54;99153.81;;;-2.12;100.00
65897;BME280;52677;50.898;10.854;2023-03-03T06:49:54;99162.47;;;-2.10;100.00
65897;BME280;52677;50.898;10.854;2023-03-03T06:51:55;99166.81;;;-2.09;100.00
65897;BME280;52677;50.898;10.854;2023-03-03T06:53:59;99169.81;;;-2.06;100.00
65897;BME280;52677;50.898;10.854;2023-03-03T06:56:00;99158.94;;;-2.06;100.00
65897;BME280;52677;50.898;10.854;2023-03-03T06:58:07;99169.22;;;-2.03;100.00
65897;BME280;52677;50.898;10.854;2023-03-03T07:02:15;99165.19;;;-2.05;100.00
65897;BME280;52677;50.898;10.854;2023-03-03T07:04:30;99171.69;;;-2.06;100.00
65897;BME280;52677;50.898;10.854;2023-03-03T07:06:32;99159.19;;;-2.02;100.00
65897;BME280;52677;50.898;10.854;2023-03-03T07:08:33;99156.25;;;-2.06;100.00
65897;BME280;52677;50.898;10.854;2023-03-03T07:10:34;99159.22;;;-2.07;100.00
65897;BME280;52677;50.898;10.854;2023-03-03T07:12:35;99166.53;;;-2.08;100.00
65897;BME280;52677;50.898;10.854;2023-03-03T07:14:41;99157.34;;;-2.07;100.00
65897;BME280;52677;50.898;10.854;2023-03-03T07:16:41;99152.44;;;-2.05;100.00
65897;BME280;52677;50.898;10.854;2023-03-03T07:18:49;99148.63;;;-2.04;100.00
65897;BME280;52677;50.898;10.854;2023-03-03T07:20:50;99152.69;;;-2.01;100.00
65897;BME280;52677;50.898;10.854;2023-03-03T07:22:50;99161.09;;;-1.98;100.00
65897;BME280;52677;50.898;10.854;2023-03-03T07:24:53;99157.28;;;-1.96;100.00
65897;BME280;52677;50.898;10.854;2023-03-03T07:29:26;99161.31;;;-1.94;100.00
65897;BME280;52677;50.898;10.854;2023-03-03T07:31:39;99161.03;;;-1.92;100.00
65897;BME280;52677;50.898;10.854;2023-03-03T07:33:44;99157.00;;;-1.95;100.00
65897;BME280;52677;50.898;10.854;2023-03-03T07:35:45;99158.38;;;-1.98;100.00
65897;BME280;52677;50.898;10.854;2023-03-03T07:37:46;99156.19;;;-1.95;100.00
65897;BME280;52677;50.898;10.854;2023-03-03T07:39:49;99168.94;;;-1.96;100.00
65897;BME280;52677;50.898;10.854;2023-03-03T07:41:49;99173.78;;;-1.93;100.00
65897;BME280;52677;50.898;10.854;2023-03-03T07:43:53;99172.41;;;-1.90;100.00
65897;BME280;52677;50.898;10.854;2023-03-03T07:46:01;99183.81;;;-1.88;100.00
65897;BME280;52677;50.898;10.854;2023-03-03T07:48:14;99185.44;;;-1.87;100.00
65897;BME280;52677;50.898;10.854;2023-03-03T07:50:21;99203.31;;;-1.86;100.00
65897;BME280;52677;50.898;10.854;2023-03-03T07:52:31;99205.50;;;-1.88;100.00
65897;BME280;52677;50.898;10.854;2023-03-03T07:54:39;99207.41;;;-1.89;100.00
65897;BME280;52677;50.898;10.854;2023-03-03T07:56:39;99202.00;;;-1.89;100.00
65897;BME280;52677;50.898;10.854;2023-03-03T07:58:40;99207.94;;;-1.92;100.00
65897;BME280;52677;50.898;10.854;2023-03-03T08:02:59;99197.97;;;-2.02;100.00
65897;BME280;52677;50.898;10.854;2023-03-03T08:07:21;99196.59;;;-1.99;100.00
65897;BME280;52677;50.898;10.854;2023-03-03T08:11:56;99202.56;;;-1.97;100.00
65897;BME280;52677;50.898;10.854;2023-03-03T08:13:58;99210.72;;;-1.97;100.00
65897;BME280;52677;50.898;10.854;2023-03-03T08:18:18;99216.09;;;-1.92;100.00
65897;BME280;52677;50.898;10.854;2023-03-03T08:20:41;99203.09;;;-1.90;100.00
65897;BME280;52677;50.898;10.854;2023-03-03T08:22:42;99204.94;;;-1.85;100.00
65897;BME280;52677;50.898;10.854;2023-03-03T08:24:42;99197.91;;;-1.91;100.00
65897;BME280;52677;50.898;10.854;2023-03-03T08:26:43;99200.09;;;-1.88;100.00
65897;BME280;52677;50.898;10.854;2023-03-03T08:28:45;99212.00;;;-1.84;100.00
65897;BME280;52677;50.898;10.854;2023-03-03T08:30:46;99230.16;;;-1.85;100.00
65897;BME280;52677;50.898;10.854;2023-03-03T08:32:46;99234.50;;;-1.84;100.00
65897;BME280;52677;50.898;10.854;2023-03-03T08:34:47;99229.34;;;-1.80;100.00
65897;BME280;52677;50.898;10.854;2023-03-03T08:36:47;99239.63;;;-1.82;100.00
65897;BME280;52677;50.898;10.854;2023-03-03T08:38:49;99236.69;;;-1.86;100.00
65897;BME280;52677;50.898;10.854;2023-03-03T08:40:50;99239.13;;;-1.84;100.00
65897;BME280;52677;50.898;10.854;2023-03-03T08:42:50;99235.88;;;-1.81;100.00
65897;BME280;52677;50.898;10.854;2023-03-03T08:44:50;99223.13;;;-1.81;100.00
65897;BME280;52677;50.898;10.854;2023-03-03T08:46:51;99222.78;;;-1.74;100.00
65897;BME280;52677;50.898;10.854;2023-03-03T08:48:51;99224.44;;;-1.73;100.00
65897;BME280;52677;50.898;10.854;2023-03-03T08:50:52;99236.06;;;-1.67;100.00
65897;BME280;52677;50.898;10.854;2023-03-03T08:52:53;99231.44;;;-1.67;100.00
65897;BME280;52677;50.898;10.854;2023-03-03T08:54:53;99227.09;;;-1.68;100.00
65897;BME280;52677;50.898;10.854;2023-03-03T08:56:53;99227.09;;;-1.68;100.00
65897;BME280;52677;50.898;10.854;2023-03-03T08:58:54;99223.84;;;-1.65;100.00
65897;BME280;52677;50.898;10.854;2023-03-03T09:00:54;99238.75;;;-1.67;100.00
65897;BME280;52677;50.898;10.854;2023-03-03T09:02:55;99245.00;;;-1.67;100.00
65897;BME280;52677;50.898;10.854;2023-03-03T09:04:55;99239.91;;;-1.74;100.00
65897;BME280;52677;50.898;10.854;2023-03-03T09:06:56;99238.25;;;-1.70;100.00
65897;BME280;52677;50.898;10.854;2023-03-03T09:08:56;99245.84;;;-1.72;100.00
65897;BME280;52677;50.898;10.854;2023-03-03T09:10:57;99245.31;;;-1.74;100.00
65897;BME280;52677;50.898;10.854;2023-03-03T09:13:01;99250.75;;;-1.74;100.00
65897;BME280;52677;50.898;10.854;2023-03-03T09:15:23;99249.97;;;-1.84;100.00
65897;BME280;52677;50.898;10.854;2023-03-03T09:17:29;99254.63;;;-1.90;100.00
65897;BME280;52677;50.898;10.854;2023-03-03T09:19:34;99263.56;;;-1.94;100.00
65897;BME280;52677;50.898;10.854;2023-03-03T09:21:35;99257.91;;;-1.98;100.00
65897;BME280;52677;50.898;10.854;2023-03-03T09:25:37;99263.88;;;-2.01;100.00
65897;BME280;52677;50.898;10.854;2023-03-03T09:27:37;99264.16;;;-2.03;100.00
65897;BME280;52677;50.898;10.854;2023-03-03T09:29:39;99264.13;;;-1.98;100.00
65897;BME280;52677;50.898;10.854;2023-03-03T09:31:48;99266.56;;;-1.96;100.00
65897;BME280;52677;50.898;10.854;2023-03-03T09:33:49;99263.03;;;-1.96;100.00
65897;BME280;52677;50.898;10.854;2023-03-03T09:36:03;99264.94;;;-1.97;100.00
65897;BME280;52677;50.898;10.854;2023-03-03T09:38:28;99263.84;;;-1.96;100.00
65897;BME280;52677;50.898;10.854;2023-03-03T09:42:58;99253.81;;;-1.95;100.00
65897;BME280;52677;50.898;10.854;2023-03-03T09:51:52;99260.56;;;-1.88;100.00
65897;BME280;52677;50.898;10.854;2023-03-03T09:54:07;99255.66;;;-1.86;100.00
65897;BME280;52677;50.898;10.854;2023-03-03T09:56:16;99250.25;;;-1.86;100.00
65897;BME280;52677;50.898;10.854;2023-03-03T10:08:01;99253.72;;;-1.70;100.00
65897;BME280;52677;50.898;10.854;2023-03-03T10:17:05;99256.66;;;-1.61;100.00
65897;BME280;52677;50.898;10.854;2023-03-03T10:19:40;99273.47;;;-1.59;100.00
65897;BME280;52677;50.898;10.854;2023-03-03T10:21:57;99272.41;;;-1.63;100.00
65897;BME280;52677;50.898;10.854;2023-03-03T10:26:47;99272.47;;;-1.74;100.00
65897;BME280;52677;50.898;10.854;2023-03-03T10:33:56;99263.22;;;-1.78;100.00
65897;BME280;52677;50.898;10.854;2023-03-03T10:36:06;99262.94;;;-1.71;100.00
65897;BME280;52677;50.898;10.854;2023-03-03T10:40:34;99268.06;;;-1.64;100.00
65897;BME280;52677;50.898;10.854;2023-03-03T10:50:29;99260.47;;;-1.62;100.00
65897;BME280;52677;50.898;10.854;2023-03-03T10:57:01;99273.56;;;-1.85;100.00
65897;BME280;52677;50.898;10.854;2023-03-03T11:01:46;99268.59;;;-1.67;100.00
65897;BME280;52677;50.898;10.854;2023-03-03T11:08:26;99267.50;;;-1.66;100.00
65897;BME280;52677;50.898;10.854;2023-03-03T11:12:59;99256.94;;;-1.63;100.00
65897;BME280;52677;50.898;10.854;2023-03-03T11:19:58;99266.44;;;-1.65;100.00
65897;BME280;52677;50.898;10.854;2023-03-03T11:31:53;99275.34;;;-1.55;100.00
65897;BME280;52677;50.898;10.854;2023-03-03T11:35:18;99265.81;;;-1.52;100.00
65897;BME280;52677;50.898;10.854;2023-03-03T11:37:02;99260.03;;;-1.35;100.00
65897;BME280;52677;50.898;10.854;2023-03-03T11:39:09;99263.25;;;-1.33;100.00
65897;BME280;52677;50.898;10.854;2023-03-03T11:43:45;99264.41;;;-1.39;100.00
65897;BME280;52677;50.898;10.854;2023-03-03T11:45:52;99270.09;;;-1.41;100.00
65897;BME280;52677;50.898;10.854;2023-03-03T11:48:11;99253.34;;;-1.48;100.00
65897;BME280;52677;50.898;10.854;2023-03-03T11:50:34;99258.53;;;-1.57;100.00
65897;BME280;52677;50.898;10.854;2023-03-03T11:52:50;99254.97;;;-1.57;100.00
65897;BME280;52677;50.898;10.854;2023-03-03T11:55:18;99248.50;;;-1.56;100.00
65897;BME280;52677;50.898;10.854;2023-03-03T12:01:52;99249.81;;;-1.49;100.00
65897;BME280;52677;50.898;10.854;2023-03-03T12:04:11;99251.97;;;-1.51;100.00
65897;BME280;52677;50.898;10.854;2023-03-03T12:11:20;99247.91;;;-1.48;100.00
65897;BME280;52677;50.898;10.854;2023-03-03T12:13:49;99248.38;;;-1.41;100.00
65897;BME280;52677;50.898;10.854;2023-03-03T12:16:07;99257.09;;;-1.44;100.00
65897;BME280;52677;50.898;10.854;2023-03-03T12:25:45;99242.09;;;-1.31;100.00
65897;BME280;52677;50.898;10.854;2023-03-03T12:27:55;99239.38;;;-1.31;100.00
65897;BME280;52677;50.898;10.854;2023-03-03T12:30:19;99238.00;;;-1.29;100.00
65897;BME280;52677;50.898;10.854;2023-03-03T12:34:58;99229.06;;;-1.29;100.00